createdAt,value
2023-03-13T00:01:19.451Z,100450.75
2023-03-13T00:03:48.676Z,100456.75
2023-03-13T00:06:17.381Z,100451.53
2023-03-13T00:08:46.406Z,100450.69
2023-03-13T00:11:16.498Z,100458.78
2023-03-13T00:13:45.810Z,100453.97
2023-03-13T00:16:16.569Z,100458.28
2023-03-13T00:18:49.068Z,100458.22
2023-03-13T00:21:18.488Z,100448.75
2023-03-13T00:23:47.649Z,100453.44
2023-03-13T00:26:17.315Z,100453.88
2023-03-13T00:28:46.394Z,100460.63
2023-03-13T00:31:17.657Z,100460.56
2023-03-13T00:33:47.936Z,100462.38
2023-03-13T00:36:17.838Z,100466.56
2023-03-13T00:38:46.877Z,100468.28
2023-03-13T00:41:16.547Z,100474.47
2023-03-13T00:43:45.928Z,100474.41
2023-03-13T00:46:15.431Z,100476.47
2023-03-13T00:48:46.028Z,100475.69
2023-03-13T00:51:15.278Z,100474.81
2023-03-13T00:53:44.251Z,100476.47
2023-03-13T00:56:13.859Z,100468.09
2023-03-13T00:58:43.659Z,100477.03
2023-03-13T01:01:13.387Z,100464.53
2023-03-13T01:03:42.931Z,100469.69
2023-03-13T01:06:14.754Z,100463.50
2023-03-13T01:08:43.437Z,100476.63
2023-03-13T01:11:13.299Z,100469.25
2023-03-13T01:13:42.202Z,100464.53
2023-03-13T01:16:12.532Z,100471.38
2023-03-13T01:18:42.546Z,100473.03
2023-03-13T01:21:14.348Z,100471.03
2023-03-13T01:23:43.495Z,100476.81
2023-03-13T01:26:12.429Z,100471.56
2023-03-13T01:28:41.232Z,100471.56
2023-03-13T01:31:14.385Z,100478.84
2023-03-13T01:33:43.522Z,100484.34
2023-03-13T01:36:13.746Z,100473.47
2023-03-13T01:38:42.841Z,100485.09
2023-03-13T01:41:13.364Z,100494.31
2023-03-13T01:43:42.141Z,100489.06
2023-03-13T01:46:16.549Z,100503.31
2023-03-13T01:48:55.339Z,100500.78
2023-03-13T01:51:28.566Z,100503.22
2023-03-13T01:54:01.932Z,100515.75
2023-03-13T01:56:33.477Z,100512.19
2023-03-13T01:59:02.212Z,100514.66
2023-03-13T02:01:31.291Z,100527.97
2023-03-13T02:04:00.212Z,100527.09
2023-03-13T02:06:32.891Z,100532.84
2023-03-13T02:09:05.781Z,100534.97
2023-03-13T02:11:41.096Z,100540.13
2023-03-13T02:14:09.751Z,100537.78
2023-03-13T02:16:38.675Z,100552.69
2023-03-13T02:19:14.608Z,100550.28
2023-03-13T02:21:48.393Z,100551.66
2023-03-13T02:24:22.260Z,100548.38
2023-03-13T02:26:52.371Z,100557.06
2023-03-13T02:29:22.190Z,100553.78
2023-03-13T02:31:51.301Z,100546.66
2023-03-13T02:34:22.796Z,100551.38
2023-03-13T02:36:51.621Z,100545.34
2023-03-13T02:39:24.089Z,100551.13
2023-03-13T02:41:55.312Z,100545.13
2023-03-13T02:44:24.163Z,100560.81
2023-03-13T02:46:53.528Z,100566.72
2023-03-13T02:49:27.806Z,100557.31
2023-03-13T02:51:59.555Z,100561.06
2023-03-13T02:54:30.399Z,100558.44
2023-03-13T02:57:03.141Z,100570.97
2023-03-13T02:59:32.513Z,100571.59
2023-03-13T03:02:01.388Z,100576.69
2023-03-13T03:04:30.228Z,100578.38
2023-03-13T03:06:59.024Z,100575.09
2023-03-13T03:09:27.727Z,100585.50
2023-03-13T03:12:01.458Z,100578.72
2023-03-13T03:14:31.616Z,100581.75
2023-03-13T03:17:00.233Z,100583.19
2023-03-13T03:19:47.865Z,100592.69
2023-03-13T03:22:16.976Z,100590.59
2023-03-13T03:24:45.834Z,100590.75
2023-03-13T03:27:16.187Z,100585.28
2023-03-13T03:29:50.678Z,100598.66
2023-03-13T03:32:19.477Z,100597.97
2023-03-13T03:34:48.260Z,100604.88
2023-03-13T03:37:17.247Z,100611.91
2023-03-13T03:39:46.151Z,100615.25
2023-03-13T03:42:16.250Z,100613.47
2023-03-13T03:44:45.568Z,100614.69
2023-03-13T03:47:15.921Z,100630.22
2023-03-13T03:49:47.701Z,100632.78
2023-03-13T03:52:17.658Z,100633.69
2023-03-13T03:54:47.038Z,100638.06
2023-03-13T03:57:18.498Z,100640.69
2023-03-13T03:59:48.274Z,100638.03
2023-03-13T04:02:18.009Z,100648.03
2023-03-13T04:04:47.752Z,100651.31
2023-03-13T04:07:23.947Z,100652.94
2023-03-13T04:09:53.480Z,100661.16
2023-03-13T04:12:40.934Z,100657.56
2023-03-13T04:15:10.841Z,100660.78
2023-03-13T04:17:42.700Z,100660.97
2023-03-13T04:20:17.893Z,100668.69
2023-03-13T04:22:46.899Z,100674.72
2023-03-13T04:25:17.056Z,100674.72
2023-03-13T04:27:48.157Z,100679.88
2023-03-13T04:30:18.796Z,100680.63
2023-03-13T04:33:22.226Z,100677.72
2023-03-13T04:36:11.119Z,100677.72
2023-03-13T04:38:58.652Z,100688.13
2023-03-13T04:41:56.112Z,100690.88
2023-03-13T04:44:45.517Z,100695.31
2023-03-13T04:47:22.113Z,100702.41
2023-03-13T04:50:11.382Z,100706.25
2023-03-13T04:52:49.722Z,100711.50
2023-03-13T04:55:45.218Z,100716.94
2023-03-13T04:58:52.632Z,100715.97
2023-03-13T05:01:59.547Z,100719.03
2023-03-13T05:04:50.579Z,100716.56
2023-03-13T05:07:49.865Z,100723.34
2023-03-13T05:10:42.959Z,100719.81
2023-03-13T05:13:26.608Z,100725.44
2023-03-13T05:16:20.065Z,100731.09
2023-03-13T05:19:43.532Z,100725.91
2023-03-13T05:22:36.430Z,100732.34
2023-03-13T05:25:27.326Z,100734.41
2023-03-13T05:27:56.149Z,100733.81
2023-03-13T05:30:36.909Z,100738.97
2023-03-13T05:33:19.403Z,100738.63
2023-03-13T05:36:09.765Z,100741.03
2023-03-13T05:38:53.563Z,100754.38
2023-03-13T05:41:45.539Z,100753.41
2023-03-13T05:44:43.492Z,100754.44
2023-03-13T05:47:33.033Z,100750.88
2023-03-13T05:50:11.715Z,100765.38
2023-03-13T05:52:58.817Z,100770.03
2023-03-13T05:55:42.693Z,100765.13
2023-03-13T05:58:46.061Z,100772.84
2023-03-13T06:01:53.420Z,100763.91
2023-03-13T06:04:30.476Z,100773.44
2023-03-13T06:06:59.628Z,100766.94
2023-03-13T06:09:30.170Z,100774.22
2023-03-13T06:12:04.746Z,100775.28
2023-03-13T06:14:34.264Z,100778.13
2023-03-13T06:17:22.030Z,100783.66
2023-03-13T06:19:51.289Z,100779.59
2023-03-13T06:22:23.299Z,100778.69
2023-03-13T06:24:52.698Z,100783.78
2023-03-13T06:27:23.170Z,100783.41
2023-03-13T06:29:52.100Z,100793.28
2023-03-13T06:32:21.087Z,100797.22
2023-03-13T06:34:50.142Z,100788.41
2023-03-13T06:37:19.380Z,100788.09
2023-03-13T06:39:48.282Z,100785.56
2023-03-13T06:42:17.816Z,100786.69
2023-03-13T06:44:47.994Z,100790.41
2023-03-13T06:47:17.130Z,100791.50
2023-03-13T06:49:46.065Z,100801.59
2023-03-13T06:52:15.117Z,100799.75
2023-03-13T06:54:43.907Z,100804.91
2023-03-13T06:57:12.859Z,100818.69
2023-03-13T06:59:41.683Z,100816.22
2023-03-13T07:02:12.826Z,100819.22
2023-03-13T07:04:45.268Z,100816.41
2023-03-13T07:07:25.817Z,100817.97
2023-03-13T07:10:00.674Z,100823.09
2023-03-13T07:12:30.165Z,100824.03
2023-03-13T07:14:59.468Z,100824.88
2023-03-13T07:17:32.873Z,100826.63
2023-03-13T07:20:10.852Z,100830.19
2023-03-13T07:22:39.818Z,100830.88
2023-03-13T07:25:09.675Z,100833.09
2023-03-13T07:27:39.201Z,100819.84
2023-03-13T07:30:08.625Z,100823.81
2023-03-13T07:32:39.251Z,100818.94
2023-03-13T07:35:08.435Z,100823.91
2023-03-13T07:37:37.617Z,100829.34
2023-03-13T07:40:07.035Z,100826.69
2023-03-13T07:42:36.231Z,100829.16
2023-03-13T07:45:05.433Z,100831.53
2023-03-13T07:47:35.790Z,100820.13
2023-03-13T07:50:06.759Z,100824.13
2023-03-13T07:52:39.594Z,100819.16
2023-03-13T07:55:09.085Z,100817.81
2023-03-13T07:57:38.610Z,100818.53
2023-03-13T08:00:11.971Z,100820.72
2023-03-13T08:02:41.202Z,100820.66
2023-03-13T08:05:11.513Z,100817.63
2023-03-13T08:07:40.771Z,100808.94
2023-03-13T08:10:10.567Z,100813.09
2023-03-13T08:12:40.082Z,100826.91
2023-03-13T08:15:09.837Z,100813.66
2023-03-13T08:17:41.148Z,100820.00
2023-03-13T08:20:12.628Z,100818.69
2023-03-13T08:22:41.760Z,100821.53
2023-03-13T08:25:10.965Z,100826.63
2023-03-13T08:27:40.072Z,100830.19
2023-03-13T08:30:09.774Z,100835.50
2023-03-13T08:32:39.204Z,100837.34
2023-03-13T08:35:08.713Z,100832.84
2023-03-13T08:37:38.964Z,100835.72
2023-03-13T08:40:18.086Z,100827.56
2023-03-13T08:42:50.287Z,100828.81
2023-03-13T08:45:22.579Z,100840.63
2023-03-13T08:47:56.710Z,100834.19
2023-03-13T08:50:25.473Z,100819.88
2023-03-13T08:53:03.414Z,100827.69
2023-03-13T08:55:34.342Z,100830.66
2023-03-13T08:58:08.800Z,100827.88
2023-03-13T09:00:37.816Z,100818.00
2023-03-13T09:03:06.559Z,100817.09
2023-03-13T09:05:54.641Z,100802.63
2023-03-13T09:08:26.438Z,100813.84
2023-03-13T09:10:59.448Z,100809.06
2023-03-13T09:13:29.564Z,100813.41
2023-03-13T09:15:59.638Z,100808.47
2023-03-13T09:18:29.267Z,100798.13
2023-03-13T09:20:58.238Z,100809.66
2023-03-13T09:23:29.173Z,100811.38
2023-03-13T09:25:58.735Z,100803.19
2023-03-13T09:28:28.059Z,100790.69
2023-03-13T09:30:57.500Z,100806.38
2023-03-13T09:33:26.843Z,100810.25
2023-03-13T09:35:58.935Z,100789.38
2023-03-13T09:38:29.623Z,100808.34
2023-03-13T09:41:06.200Z,100796.84
2023-03-13T09:43:41.961Z,100799.44
2023-03-13T09:46:14.748Z,100802.13
2023-03-13T09:48:45.367Z,100799.50
2023-03-13T09:51:33.124Z,100794.72
2023-03-13T09:54:07.585Z,100790.25
2023-03-13T09:56:41.176Z,100787.47
2023-03-13T09:59:15.396Z,100783.84
2023-03-13T10:01:45.969Z,100787.91
2023-03-13T10:04:25.967Z,100782.47
2023-03-13T10:06:55.238Z,100777.31
2023-03-13T10:09:30.553Z,100780.50
2023-03-13T10:12:05.228Z,100780.53
2023-03-13T10:14:38.659Z,100761.31
2023-03-13T10:17:11.841Z,100764.09
2023-03-13T10:19:43.642Z,100760.63
2023-03-13T10:22:14.773Z,100759.13
2023-03-13T10:24:48.413Z,100757.53
2023-03-13T10:27:20.325Z,100756.63
2023-03-13T10:29:49.710Z,100756.81
2023-03-13T10:32:19.281Z,100756.16
2023-03-13T10:34:52.440Z,100750.94
2023-03-13T10:37:23.783Z,100732.66
2023-03-13T10:39:55.340Z,100740.44
2023-03-13T10:42:29.185Z,100732.09
2023-03-13T10:44:59.772Z,100752.91
2023-03-13T10:47:29.326Z,100736.88
2023-03-13T10:49:59.097Z,100733.28
2023-03-13T10:52:33.268Z,100736.06
2023-03-13T10:55:05.729Z,100736.63
2023-03-13T10:57:36.511Z,100727.34
2023-03-13T11:00:11.358Z,100715.72
2023-03-13T11:02:41.001Z,100710.56
2023-03-13T11:05:25.011Z,100708.69
2023-03-13T11:07:54.548Z,100698.88
2023-03-13T11:10:25.809Z,100687.81
2023-03-13T11:12:55.508Z,100691.03
2023-03-13T11:15:27.447Z,100686.16
2023-03-13T11:18:01.058Z,100680.97
2023-03-13T11:20:32.732Z,100682.59
2023-03-13T11:23:12.628Z,100664.66
2023-03-13T11:25:45.436Z,100667.41
2023-03-13T11:28:32.183Z,100667.00
2023-03-13T11:31:08.366Z,100662.69
2023-03-13T11:33:45.652Z,100661.94
2023-03-13T11:36:20.248Z,100658.41
2023-03-13T11:38:51.067Z,100657.97
2023-03-13T11:41:29.424Z,100657.22
2023-03-13T11:44:16.164Z,100650.72
2023-03-13T11:46:49.686Z,100641.94
2023-03-13T11:49:31.048Z,100642.38
2023-03-13T11:52:03.827Z,100643.66
2023-03-13T11:54:42.219Z,100637.31
2023-03-13T11:57:15.200Z,100637.00
2023-03-13T11:59:50.434Z,100646.41
2023-03-13T12:02:23.706Z,100636.59
2023-03-13T12:04:57.102Z,100628.38
2023-03-13T12:07:29.842Z,100619.16
2023-03-13T12:10:00.473Z,100619.00
2023-03-13T12:12:37.782Z,100622.50
2023-03-13T12:15:18.872Z,100620.03
2023-03-13T12:17:51.373Z,100619.72
2023-03-13T12:20:25.439Z,100623.50
2023-03-13T12:22:58.562Z,100612.06
2023-03-13T12:25:30.187Z,100614.75
2023-03-13T12:28:07.588Z,100604.94
2023-03-13T12:30:40.818Z,100617.63
2023-03-13T12:33:18.025Z,100602.06
2023-03-13T12:35:51.291Z,100618.06
2023-03-13T12:38:24.281Z,100611.97
2023-03-13T12:41:00.326Z,100602.81
2023-03-13T12:43:37.656Z,100616.91
2023-03-13T12:46:17.144Z,100624.34
2023-03-13T12:48:52.620Z,100606.22
2023-03-13T12:51:32.675Z,100616.97
2023-03-13T12:54:14.747Z,100624.91
2023-03-13T12:56:56.148Z,100611.69
2023-03-13T12:59:29.669Z,100619.00
2023-03-13T13:02:00.855Z,100615.50
2023-03-13T13:04:33.320Z,100608.16
2023-03-13T13:07:05.876Z,100607.00
2023-03-13T13:09:39.451Z,100600.16
2023-03-13T13:12:24.228Z,100590.69
2023-03-13T13:15:07.944Z,100590.59
2023-03-13T13:17:53.236Z,100597.63
2023-03-13T13:20:46.379Z,100587.97
2023-03-13T13:23:37.124Z,100583.78
2023-03-13T13:26:25.028Z,100602.56
2023-03-13T13:28:54.702Z,100591.13
2023-03-13T13:31:51.300Z,100585.34
2023-03-13T13:34:35.266Z,100579.81
2023-03-13T13:37:25.692Z,100577.47
2023-03-13T13:39:55.310Z,100564.50
2023-03-13T13:42:43.737Z,100557.63
2023-03-13T13:45:30.356Z,100552.13
2023-03-13T13:48:14.129Z,100546.38
2023-03-13T13:50:58.016Z,100543.75
2023-03-13T13:53:33.510Z,100544.78
2023-03-13T13:56:26.186Z,100557.28
2023-03-13T13:58:59.138Z,100552.88
2023-03-13T14:01:28.620Z,100550.59
2023-03-13T14:04:03.981Z,100543.97
2023-03-13T14:06:37.510Z,100547.19
2023-03-13T14:09:16.145Z,100567.69
2023-03-13T14:11:45.457Z,100571.09
2023-03-13T14:14:16.870Z,100564.75
2023-03-13T14:16:47.833Z,100571.63
2023-03-13T14:19:24.168Z,100553.28
2023-03-13T14:21:58.936Z,100559.31
2023-03-13T14:24:29.559Z,100555.16
2023-03-13T14:26:58.628Z,100553.75
2023-03-13T14:29:27.945Z,100550.44
2023-03-13T14:31:57.635Z,100542.03
2023-03-13T14:34:27.233Z,100536.50
2023-03-13T14:37:16.829Z,100545.97
2023-03-13T14:39:49.494Z,100529.81
2023-03-13T14:42:19.497Z,100527.63
2023-03-13T14:44:50.414Z,100523.72
2023-03-13T14:47:23.993Z,100517.97
2023-03-13T14:50:00.240Z,100517.13
2023-03-13T14:52:30.011Z,100510.81
2023-03-13T14:55:05.294Z,100510.59
2023-03-13T14:57:39.358Z,100510.34
2023-03-13T15:00:30.738Z,100506.25
2023-03-13T15:03:21.941Z,100509.88
2023-03-13T15:06:05.365Z,100498.09
2023-03-13T15:08:35.150Z,100502.34
2023-03-13T15:11:18.619Z,100499.59
2023-03-13T15:13:47.503Z,100485.28
2023-03-13T15:16:17.447Z,100485.44
2023-03-13T15:18:46.549Z,100473.88
2023-03-13T15:21:21.470Z,100478.47
2023-03-13T15:23:54.189Z,100465.69
2023-03-13T15:26:42.275Z,100467.09
2023-03-13T15:29:18.575Z,100472.91
2023-03-13T15:31:50.802Z,100479.19
2023-03-13T15:34:25.853Z,100485.00
2023-03-13T15:36:55.553Z,100500.88
2023-03-13T15:39:29.575Z,100494.19
2023-03-13T15:42:01.787Z,100486.16
2023-03-13T15:44:32.598Z,100486.16
2023-03-13T15:47:01.623Z,100489.31
2023-03-13T15:49:31.024Z,100479.69
2023-03-13T15:52:00.231Z,100488.88
2023-03-13T15:54:29.352Z,100482.88
2023-03-13T15:56:59.544Z,100494.34
2023-03-13T15:59:29.048Z,100488.19
2023-03-13T16:01:59.478Z,100497.75
2023-03-13T16:04:29.086Z,100484.59
2023-03-13T16:06:58.800Z,100479.75
2023-03-13T16:09:27.804Z,100487.13
2023-03-13T16:11:58.634Z,100479.75
2023-03-13T16:14:29.299Z,100472.47
2023-03-13T16:16:59.874Z,100469.56
2023-03-13T16:19:29.107Z,100464.25
2023-03-13T16:21:58.017Z,100463.84
2023-03-13T16:24:27.870Z,100467.56
2023-03-13T16:26:56.663Z,100470.75
2023-03-13T16:29:25.801Z,100463.75
2023-03-13T16:31:55.458Z,100467.47
2023-03-13T16:34:26.361Z,100461.22
2023-03-13T16:36:59.262Z,100463.53
2023-03-13T16:39:28.743Z,100458.31
2023-03-13T16:41:58.112Z,100457.28
2023-03-13T16:44:27.680Z,100460.97
2023-03-13T16:47:05.564Z,100466.00
2023-03-13T16:49:36.184Z,100453.03
2023-03-13T16:52:04.935Z,100455.78
2023-03-13T16:54:34.033Z,100453.88
2023-03-13T16:57:04.585Z,100458.53
2023-03-13T16:59:33.357Z,100447.78
2023-03-13T17:02:02.377Z,100454.16
2023-03-13T17:04:31.528Z,100450.25
2023-03-13T17:07:02.241Z,100439.16
2023-03-13T17:09:31.374Z,100448.81
2023-03-13T17:12:00.255Z,100433.25
2023-03-13T17:14:29.113Z,100430.59
2023-03-13T17:16:58.218Z,100433.28
2023-03-13T17:19:27.167Z,100429.66
2023-03-13T17:21:57.049Z,100429.81
2023-03-13T17:24:27.835Z,100427.53
2023-03-13T17:26:59.027Z,100436.31
2023-03-13T17:30:04.985Z,100439.84
2023-03-13T17:32:37.836Z,100435.13
2023-03-13T17:35:07.468Z,100435.47
2023-03-13T17:37:39.893Z,100433.72
2023-03-13T17:40:15.844Z,100432.00
2023-03-13T17:42:44.839Z,100442.09
2023-03-13T17:45:16.049Z,100444.56
2023-03-13T17:47:45.558Z,100436.03
2023-03-13T17:50:19.679Z,100439.63
2023-03-13T17:52:49.149Z,100437.38
2023-03-13T17:55:20.035Z,100429.59
2023-03-13T17:57:52.221Z,100438.09
2023-03-13T18:00:22.766Z,100429.34
2023-03-13T18:02:52.217Z,100432.53
2023-03-13T18:05:21.190Z,100425.22
2023-03-13T18:07:50.722Z,100429.22
2023-03-13T18:10:22.420Z,100428.59
2023-03-13T18:12:52.319Z,100430.28
2023-03-13T18:15:22.282Z,100421.47
2023-03-13T18:18:00.092Z,100423.47
2023-03-13T18:20:37.578Z,100424.78
2023-03-13T18:23:13.299Z,100427.63
2023-03-13T18:25:49.456Z,100422.22
2023-03-13T18:28:18.827Z,100419.59
2023-03-13T18:30:52.340Z,100423.44
2023-03-13T18:33:28.317Z,100420.38
2023-03-13T18:35:57.492Z,100402.75
2023-03-13T18:38:31.097Z,100412.66
2023-03-13T18:41:02.309Z,100403.34
2023-03-13T18:43:34.366Z,100400.47
2023-03-13T18:46:04.115Z,100418.97
2023-03-13T18:48:33.914Z,100394.91
2023-03-13T18:51:04.251Z,100404.94
2023-03-13T18:53:36.246Z,100398.03
2023-03-13T18:56:15.563Z,100401.56
2023-03-13T18:58:45.009Z,100402.50
2023-03-13T19:01:15.188Z,100397.09
2023-03-13T19:03:46.476Z,100391.53
2023-03-13T19:06:20.751Z,100401.97
2023-03-13T19:08:50.967Z,100395.13
2023-03-13T19:11:22.174Z,100391.13
2023-03-13T19:13:51.195Z,100398.25
2023-03-13T19:16:22.151Z,100392.00
2023-03-13T19:18:51.914Z,100390.88
2023-03-13T19:21:21.951Z,100387.34
2023-03-13T19:24:11.972Z,100388.13
2023-03-13T19:26:43.179Z,100392.88
2023-03-13T19:29:14.446Z,100385.38
2023-03-13T19:31:43.770Z,100388.31
2023-03-13T19:34:13.236Z,100388.31
2023-03-13T19:36:45.194Z,100391.25
2023-03-13T19:39:15.971Z,100387.00
2023-03-13T19:41:48.351Z,100390.31
2023-03-13T19:44:18.594Z,100395.91
2023-03-13T19:46:51.729Z,100389.44
2023-03-13T19:49:22.179Z,100375.81
2023-03-13T19:51:51.411Z,100379.41
2023-03-13T19:54:21.559Z,100378.44
2023-03-13T19:56:54.491Z,100386.00
2023-03-13T19:59:32.268Z,100374.28
2023-03-13T20:02:10.882Z,100379.22
2023-03-13T20:04:46.692Z,100372.03
2023-03-13T20:07:16.289Z,100372.03
2023-03-13T20:09:46.811Z,100368.88
2023-03-13T20:12:18.030Z,100369.84
2023-03-13T20:14:46.960Z,100371.81
2023-03-13T20:17:16.323Z,100371.72
2023-03-13T20:19:45.789Z,100364.16
2023-03-13T20:22:14.659Z,100360.63
2023-03-13T20:24:43.594Z,100364.25
2023-03-13T20:27:12.870Z,100368.06
2023-03-13T20:29:43.983Z,100358.78
2023-03-13T20:32:13.805Z,100363.88
2023-03-13T20:34:42.710Z,100361.97
2023-03-13T20:37:12.863Z,100358.19
2023-03-13T20:39:43.378Z,100350.59
2023-03-13T20:42:13.315Z,100354.19
2023-03-13T20:44:47.672Z,100350.34
2023-03-13T20:47:17.251Z,100356.88
2023-03-13T20:50:00.622Z,100359.69
2023-03-13T20:52:29.624Z,100368.91
2023-03-13T20:54:58.523Z,100358.81
2023-03-13T20:57:27.342Z,100369.31
2023-03-13T20:59:57.280Z,100368.63
2023-03-13T21:02:26.040Z,100371.78
2023-03-13T21:04:55.226Z,100359.47
2023-03-13T21:07:24.077Z,100368.00
2023-03-13T21:09:52.969Z,100364.81
2023-03-13T21:12:21.585Z,100367.34
2023-03-13T21:14:55.386Z,100371.41
2023-03-13T21:17:25.538Z,100374.97
2023-03-13T21:19:55.355Z,100370.78
2023-03-13T21:22:24.397Z,100366.88
2023-03-13T21:24:53.379Z,100380.13
2023-03-13T21:27:22.689Z,100363.22
2023-03-13T21:29:51.582Z,100371.81
2023-03-13T21:32:21.037Z,100359.50
2023-03-13T21:34:51.518Z,100373.44
2023-03-13T21:37:20.280Z,100370.75
2023-03-13T21:39:51.348Z,100368.69
2023-03-13T21:42:20.428Z,100371.06
2023-03-13T21:44:49.542Z,100367.25
2023-03-13T21:47:24.367Z,100384.47
2023-03-13T21:49:55.396Z,100373.31
2023-03-13T21:52:24.100Z,100374.19
2023-03-13T21:54:53.108Z,100371.25
2023-03-13T21:57:21.791Z,100379.88
2023-03-13T21:59:51.811Z,100377.75
2023-03-13T22:02:21.728Z,100370.25
2023-03-13T22:05:06.905Z,100367.81
2023-03-13T22:07:52.157Z,100359.50
2023-03-13T22:10:27.836Z,100383.13
2023-03-13T22:15:59.917Z,100376.91
2023-03-13T22:18:32.689Z,100357.41
2023-03-13T22:21:03.040Z,100364.72
2023-03-13T22:23:33.877Z,100364.63
2023-03-13T22:26:03.697Z,100363.31
2023-03-13T22:28:33.277Z,100367.84
2023-03-13T22:31:07.643Z,100363.69
2023-03-13T22:33:40.786Z,100366.06
2023-03-13T22:36:11.356Z,100360.09
2023-03-13T22:38:42.452Z,100360.19
2023-03-13T22:41:13.687Z,100354.41
2023-03-13T22:43:43.397Z,100354.13
2023-03-13T22:46:13.133Z,100330.53
2023-03-13T22:48:42.511Z,100338.53
2023-03-13T22:51:12.742Z,100343.25
2023-03-13T22:53:43.886Z,100341.34
2023-03-13T22:56:13.906Z,100332.09
2023-03-13T22:58:43.821Z,100329.63
2023-03-13T23:01:14.376Z,100317.91
2023-03-13T23:03:44.168Z,100326.56
2023-03-13T23:06:16.756Z,100329.34
2023-03-13T23:08:48.280Z,100326.19
2023-03-13T23:11:17.993Z,100322.16
2023-03-13T23:13:47.136Z,100321.28
2023-03-13T23:16:17.110Z,100316.28
2023-03-13T23:18:46.514Z,100309.34
2023-03-13T23:21:16.420Z,100316.38
2023-03-13T23:23:46.144Z,100312.53
2023-03-13T23:26:17.280Z,100305.19
2023-03-13T23:28:46.505Z,100306.72
2023-03-13T23:31:16.044Z,100316.84
2023-03-13T23:33:45.127Z,100310.50
2023-03-13T23:36:14.747Z,100314.31
2023-03-13T23:38:43.883Z,100306.72
2023-03-13T23:41:13.791Z,100303.69
2023-03-13T23:43:43.856Z,100302.00
2023-03-13T23:46:16.623Z,100315.97
2023-03-13T23:48:45.269Z,100310.69
2023-03-13T23:51:14.349Z,100312.47
2023-03-13T23:53:43.944Z,100310.66
2023-03-13T23:56:12.950Z,100305.19
2023-03-13T23:58:43.718Z,100298.41
